createdAt,value
2015-10-27T00:00:07.857Z,1011.99
2015-10-27T00:00:17.857Z,1012
2015-10-27T00:00:27.857Z,1011.99
2015-10-27T00:00:37.876Z,1011.98
2015-10-27T00:00:47.876Z,1011.98
2015-10-27T00:00:57.876Z,1011.98
2015-10-27T00:01:07.891Z,1011.97
2015-10-27T00:01:17.891Z,1011.95
2015-10-27T00:01:27.891Z,1011.97
2015-10-27T00:01:37.910Z,1011.97
2015-10-27T00:01:47.910Z,1011.97
2015-10-27T00:01:57.925Z,1011.96
2015-10-27T00:02:07.925Z,1012
2015-10-27T00:02:17.925Z,1011.98
2015-10-27T00:02:27.925Z,1011.98
2015-10-27T00:02:37.944Z,1012
2015-10-27T00:02:47.944Z,1011.98
2015-10-27T00:02:57.944Z,1011.99
2015-10-27T00:03:07.960Z,1011.97
2015-10-27T00:03:17.960Z,1011.98
2015-10-27T00:03:27.960Z,1012
2015-10-27T00:03:37.976Z,1011.99
2015-10-27T00:03:47.976Z,1012.01
2015-10-27T00:03:57.976Z,1012
2015-10-27T00:04:07.992Z,1011.98
2015-10-27T00:04:17.992Z,1011.96
2015-10-27T00:04:28.008Z,1011.98
2015-10-27T00:04:38.011Z,1012
2015-10-27T00:04:48.026Z,1011.97
2015-10-27T00:04:58.011Z,1011.99
2015-10-27T00:05:08.026Z,1012.01
2015-10-27T00:05:18.026Z,1012.02
2015-10-27T00:05:28.042Z,1011.96
2015-10-27T00:05:38.045Z,1012.01
2015-10-27T00:05:48.045Z,1011.97
2015-10-27T00:05:58.045Z,1011.97
2015-10-27T00:06:08.060Z,1012.02
2015-10-27T00:06:18.060Z,1012.03
2015-10-27T00:06:28.060Z,1012.02
2015-10-27T00:06:38.079Z,1011.98
2015-10-27T00:06:48.079Z,1012
2015-10-27T00:06:58.095Z,1011.99
2015-10-27T00:07:08.095Z,1011.98
2015-10-27T00:07:18.095Z,1012
2015-10-27T00:07:28.110Z,1012.01
2015-10-27T00:07:38.112Z,1012.01
2015-10-27T00:07:48.112Z,1011.99
2015-10-27T00:07:58.128Z,1011.99
2015-10-27T00:08:08.128Z,1011.96
2015-10-27T00:08:18.128Z,1011.99
2015-10-27T00:08:28.144Z,1011.97
2015-10-27T00:08:38.147Z,1011.97
2015-10-27T00:08:48.162Z,1011.96
2015-10-27T00:08:58.162Z,1012.01
2015-10-27T00:09:08.162Z,1011.98
2015-10-27T00:09:18.193Z,1011.96
2015-10-27T00:09:28.178Z,1012
2015-10-27T00:09:38.181Z,1011.97
2015-10-27T00:09:48.196Z,1011.99
2015-10-27T00:09:58.196Z,1011.96
2015-10-27T00:10:08.196Z,1011.99
2015-10-27T00:10:18.196Z,1011.96
2015-10-27T00:10:28.212Z,1011.99
2015-10-27T00:10:38.215Z,1011.99
2015-10-27T00:10:48.231Z,1011.98
2015-10-27T00:10:58.231Z,1011.97
2015-10-27T00:11:08.231Z,1011.97
2015-10-27T00:11:18.231Z,1011.97
2015-10-27T00:11:28.246Z,1011.94
2015-10-27T00:11:38.248Z,1011.95
2015-10-27T00:11:48.248Z,1011.97
2015-10-27T00:11:58.311Z,1011.95
2015-10-27T00:12:08.264Z,1011.96
2015-10-27T00:12:18.264Z,1011.95
2015-10-27T00:12:28.280Z,1011.95
2015-10-27T00:12:38.283Z,1011.96
2015-10-27T00:12:48.298Z,1011.97
2015-10-27T00:12:58.298Z,1011.97
2015-10-27T00:13:08.298Z,1011.95
2015-10-27T00:13:18.298Z,1011.95
2015-10-27T00:13:28.314Z,1011.98
2015-10-27T00:13:38.316Z,1011.96
2015-10-27T00:13:48.316Z,1011.96
2015-10-27T00:13:58.331Z,1011.97
2015-10-27T00:14:08.331Z,1011.95
2015-10-27T00:14:18.331Z,1011.98
2015-10-27T00:14:28.347Z,1011.94
2015-10-27T00:14:38.350Z,1011.95
2015-10-27T00:14:48.350Z,1011.99
2015-10-27T00:14:58.366Z,1011.97
2015-10-27T00:15:08.366Z,1011.99
2015-10-27T00:15:18.366Z,1011.92
2015-10-27T00:15:28.381Z,1011.96
2015-10-27T00:15:38.384Z,1011.97
2015-10-27T00:15:48.400Z,1011.95
2015-10-27T00:15:58.400Z,1011.97
2015-10-27T00:16:08.400Z,1011.97
2015-10-27T00:16:18.416Z,1011.94
2015-10-27T00:16:28.416Z,1011.97
2015-10-27T00:16:38.434Z,1011.96
2015-10-27T00:16:48.450Z,1011.95
2015-10-27T00:16:58.450Z,1011.95
2015-10-27T00:17:08.434Z,1011.95
2015-10-27T00:17:18.450Z,1011.94
2015-10-27T00:17:28.450Z,1011.97
2015-10-27T00:17:38.467Z,1011.93
2015-10-27T00:17:48.467Z,1011.94
2015-10-27T00:17:58.467Z,1011.95
2015-10-27T00:18:08.483Z,1011.93
2015-10-27T00:18:18.483Z,1011.96
2015-10-27T00:18:28.483Z,1011.95
2015-10-27T00:18:38.486Z,1011.96
2015-10-27T00:18:48.502Z,1011.94
2015-10-27T00:18:58.502Z,1011.95
2015-10-27T00:19:08.517Z,1011.95
2015-10-27T00:19:18.517Z,1011.95
2015-10-27T00:19:28.517Z,1011.93
2015-10-27T00:19:38.520Z,1011.94
2015-10-27T00:19:48.539Z,1011.93
2015-10-27T00:19:58.523Z,1011.91
2015-10-27T00:20:08.539Z,1011.93
2015-10-27T00:20:18.555Z,1011.94
2015-10-27T00:20:28.539Z,1011.91
2015-10-27T00:20:38.541Z,1011.92
2015-10-27T00:20:48.557Z,1011.91
2015-10-27T00:20:58.557Z,1011.91
2015-10-27T00:21:08.557Z,1011.94
2015-10-27T00:21:18.572Z,1011.92
2015-10-27T00:21:28.572Z,1011.93
2015-10-27T00:21:38.591Z,1011.94
2015-10-27T00:21:48.591Z,1011.95
2015-10-27T00:21:58.591Z,1011.96
2015-10-27T00:22:08.606Z,1011.93
2015-10-27T00:22:18.606Z,1011.94
2015-10-27T00:22:28.606Z,1011.96
2015-10-27T00:22:38.625Z,1011.93
2015-10-27T00:22:48.625Z,1011.95
2015-10-27T00:22:58.625Z,1011.93
2015-10-27T00:23:08.641Z,1011.92
2015-10-27T00:23:18.641Z,1011.96
2015-10-27T00:23:28.641Z,1011.92
2015-10-27T00:23:38.658Z,1011.92
2015-10-27T00:23:48.658Z,1011.9
2015-10-27T00:23:58.674Z,1011.96
2015-10-27T00:24:08.674Z,1011.95
2015-10-27T00:24:18.674Z,1011.96
2015-10-27T00:24:28.674Z,1011.92
2015-10-27T00:24:38.693Z,1011.92
2015-10-27T00:24:48.693Z,1011.95
2015-10-27T00:24:58.693Z,1011.9
2015-10-27T00:25:08.786Z,1011.94
2015-10-27T00:25:18.708Z,1011.98
2015-10-27T00:25:28.708Z,1011.94
2015-10-27T00:25:38.727Z,1011.92
2015-10-27T00:25:48.727Z,1011.91
2015-10-27T00:25:58.742Z,1011.95
2015-10-27T00:26:08.742Z,1011.95
2015-10-27T00:26:18.742Z,1011.97
2015-10-27T00:26:28.742Z,1011.91
2015-10-27T00:26:38.777Z,1011.93
2015-10-27T00:26:48.761Z,1011.95
2015-10-27T00:26:58.777Z,1011.93
2015-10-27T00:27:08.777Z,1011.92
2015-10-27T00:27:18.777Z,1011.92
2015-10-27T00:27:28.777Z,1011.9
2015-10-27T00:27:38.794Z,1011.93
2015-10-27T00:27:48.794Z,1011.94
2015-10-27T00:27:58.794Z,1011.92
2015-10-27T00:28:08.810Z,1011.95
2015-10-27T00:28:18.810Z,1011.94
2015-10-27T00:28:28.826Z,1011.91
2015-10-27T00:28:38.829Z,1011.91
2015-10-27T00:28:48.829Z,1011.96
2015-10-27T00:28:58.844Z,1011.89
2015-10-27T00:29:08.844Z,1011.91
2015-10-27T00:29:18.844Z,1011.96
2015-10-27T00:29:28.844Z,1011.92
2015-10-27T00:29:38.863Z,1011.93
2015-10-27T00:29:48.863Z,1011.91
2015-10-27T00:29:58.878Z,1011.94
2015-10-27T00:30:08.878Z,1011.9
2015-10-27T00:30:18.878Z,1011.9
2015-10-27T00:30:28.894Z,1011.93
2015-10-27T00:30:38.897Z,1011.92
2015-10-27T00:30:48.897Z,1011.91
2015-10-27T00:30:58.913Z,1011.92
2015-10-27T00:31:08.913Z,1011.93
2015-10-27T00:31:18.913Z,1011.89
2015-10-27T00:31:28.928Z,1011.95
2015-10-27T00:31:38.930Z,1011.9
2015-10-27T00:31:48.930Z,1011.88
2015-10-27T00:31:58.946Z,1011.87
2015-10-27T00:32:08.946Z,1011.89
2015-10-27T00:32:18.946Z,1011.87
2015-10-27T00:32:28.962Z,1011.9
2015-10-27T00:32:38.965Z,1011.87
2015-10-27T00:32:48.965Z,1011.88
2015-10-27T00:32:58.965Z,1011.88
2015-10-27T00:33:08.980Z,1011.87
2015-10-27T00:33:18.996Z,1011.88
2015-10-27T00:33:28.996Z,1011.9
2015-10-27T00:33:38.999Z,1011.89
2015-10-27T00:33:48.999Z,1011.88
2015-10-27T00:33:59.014Z,1011.86
2015-10-27T00:34:09.014Z,1011.87
2015-10-27T00:34:19.014Z,1011.88
2015-10-27T00:34:29.030Z,1011.86
2015-10-27T00:34:39.032Z,1011.86
2015-10-27T00:34:49.032Z,1011.86
2015-10-27T00:34:59.048Z,1011.85
2015-10-27T00:35:09.048Z,1011.83
2015-10-27T00:35:19.048Z,1011.85
2015-10-27T00:35:29.063Z,1011.85
2015-10-27T00:35:39.065Z,1011.85
2015-10-27T00:35:49.081Z,1011.84
2015-10-27T00:35:59.081Z,1011.84
2015-10-27T00:36:09.081Z,1011.86
2015-10-27T00:36:19.097Z,1011.83
2015-10-27T00:36:29.097Z,1011.86
2015-10-27T00:36:39.100Z,1011.82
2015-10-27T00:36:49.100Z,1011.83
2015-10-27T00:36:59.115Z,1011.86
2015-10-27T00:37:09.115Z,1011.84
2015-10-27T00:37:19.115Z,1011.84
2015-10-27T00:37:29.131Z,1011.84
2015-10-27T00:37:39.134Z,1011.86
2015-10-27T00:37:49.149Z,1011.87
2015-10-27T00:37:59.149Z,1011.89
2015-10-27T00:38:09.149Z,1011.86
2015-10-27T00:38:19.165Z,1011.88
2015-10-27T00:38:29.165Z,1011.89
2015-10-27T00:38:39.168Z,1011.9
2015-10-27T00:38:49.184Z,1011.89
2015-10-27T00:38:59.184Z,1011.88
2015-10-27T00:39:09.184Z,1011.91
2015-10-27T00:39:19.199Z,1011.93
2015-10-27T00:39:29.199Z,1011.93
2015-10-27T00:39:39.202Z,1011.87
2015-10-27T00:39:49.218Z,1011.87
2015-10-27T00:39:59.218Z,1011.92
2015-10-27T00:40:09.218Z,1011.91
2015-10-27T00:40:19.234Z,1011.9
2015-10-27T00:40:29.234Z,1011.89
2015-10-27T00:40:39.237Z,1011.88
2015-10-27T00:40:49.252Z,1011.89
2015-10-27T00:40:59.252Z,1011.9
2015-10-27T00:41:09.252Z,1011.91
2015-10-27T00:41:19.268Z,1011.89
2015-10-27T00:41:29.268Z,1011.9
2015-10-27T00:41:39.270Z,1011.87
2015-10-27T00:41:49.285Z,1011.88
2015-10-27T00:41:59.285Z,1011.92
2015-10-27T00:42:09.285Z,1011.89
2015-10-27T00:42:19.301Z,1011.85
2015-10-27T00:42:29.317Z,1011.86
2015-10-27T00:42:39.304Z,1011.85
2015-10-27T00:42:49.320Z,1011.86
2015-10-27T00:42:59.320Z,1011.88
2015-10-27T00:43:09.320Z,1011.84
2015-10-27T00:43:19.335Z,1011.87
2015-10-27T00:43:29.335Z,1011.88
2015-10-27T00:43:39.354Z,1011.86
2015-10-27T00:43:49.354Z,1011.85
2015-10-27T00:43:59.354Z,1011.83
2015-10-27T00:44:09.354Z,1011.83
2015-10-27T00:44:19.370Z,1011.86
2015-10-27T00:44:29.370Z,1011.83
2015-10-27T00:44:39.373Z,1011.83
2015-10-27T00:44:49.388Z,1011.82
2015-10-27T00:44:59.388Z,1011.85
2015-10-27T00:45:09.388Z,1011.86
2015-10-27T00:45:19.404Z,1011.83
2015-10-27T00:45:29.404Z,1011.84
2015-10-27T00:45:39.420Z,1011.84
2015-10-27T00:45:49.420Z,1011.82
2015-10-27T00:45:59.420Z,1011.81
2015-10-27T00:46:09.420Z,1011.8
2015-10-27T00:46:19.436Z,1011.81
2015-10-27T00:46:29.436Z,1011.84
2015-10-27T00:46:39.455Z,1011.81
2015-10-27T00:46:49.455Z,1011.8
2015-10-27T00:46:59.455Z,1011.81
2015-10-27T00:47:09.470Z,1011.8
2015-10-27T00:47:19.470Z,1011.79
2015-10-27T00:47:29.470Z,1011.82
2015-10-27T00:47:39.473Z,1011.82
2015-10-27T00:47:49.489Z,1011.8
2015-10-27T00:47:59.489Z,1011.83
2015-10-27T00:48:09.505Z,1011.82
2015-10-27T00:48:19.505Z,1011.83
2015-10-27T00:48:29.505Z,1011.82
2015-10-27T00:48:39.508Z,1011.83
2015-10-27T00:48:49.523Z,1011.81
2015-10-27T00:48:59.523Z,1011.82
2015-10-27T00:49:09.539Z,1011.83
2015-10-27T00:49:19.539Z,1011.81
2015-10-27T00:49:29.539Z,1011.8
2015-10-27T00:49:39.603Z,1011.82
2015-10-27T00:49:49.556Z,1011.82
2015-10-27T00:49:59.556Z,1011.83
2015-10-27T00:50:09.556Z,1011.86
2015-10-27T00:50:19.572Z,1011.83
2015-10-27T00:50:29.588Z,1011.81
2015-10-27T00:50:39.575Z,1011.85
2015-10-27T00:50:49.591Z,1011.8
2015-10-27T00:50:59.591Z,1011.79
2015-10-27T00:51:09.606Z,1011.79
2015-10-27T00:51:19.606Z,1011.79
2015-10-27T00:51:29.606Z,1011.82
2015-10-27T00:51:39.625Z,1011.81
2015-10-27T00:51:49.625Z,1011.82
2015-10-27T00:51:59.625Z,1011.81
2015-10-27T00:52:09.625Z,1011.83
2015-10-27T00:52:19.641Z,1011.8
2015-10-27T00:52:29.656Z,1011.81
2015-10-27T00:52:39.659Z,1011.78
2015-10-27T00:52:49.659Z,1011.79
2015-10-27T00:52:59.659Z,1011.78
2015-10-27T00:53:09.675Z,1011.8
2015-10-27T00:53:19.675Z,1011.78
2015-10-27T00:53:29.675Z,1011.81
2015-10-27T00:53:39.692Z,1011.81
2015-10-27T00:53:49.692Z,1011.77
2015-10-27T00:53:59.692Z,1011.76
2015-10-27T00:54:09.708Z,1011.77
2015-10-27T00:54:19.708Z,1011.76
2015-10-27T00:54:29.724Z,1011.77
2015-10-27T00:54:39.727Z,1011.75
2015-10-27T00:54:49.727Z,1011.76
2015-10-27T00:54:59.727Z,1011.76
2015-10-27T00:55:09.742Z,1011.71
2015-10-27T00:55:19.742Z,1011.75
2015-10-27T00:55:29.742Z,1011.75
2015-10-27T00:55:39.761Z,1011.75
2015-10-27T00:55:49.761Z,1011.76
2015-10-27T00:55:59.761Z,1011.72
2015-10-27T00:56:09.777Z,1011.74
2015-10-27T00:56:19.777Z,1011.73
2015-10-27T00:56:29.792Z,1011.74
2015-10-27T00:56:39.795Z,1011.73
2015-10-27T00:56:49.795Z,1011.72
2015-10-27T00:56:59.795Z,1011.74
2015-10-27T00:57:09.655Z,1011.72
2015-10-27T00:57:19.811Z,1011.71
2015-10-27T00:57:29.811Z,1011.71
2015-10-27T00:57:39.828Z,1011.72
2015-10-27T00:57:49.828Z,1011.72
2015-10-27T00:57:59.688Z,1011.73
2015-10-27T00:58:09.844Z,1011.73
2015-10-27T00:58:19.844Z,1011.73
2015-10-27T00:58:29.844Z,1011.74
2015-10-27T00:58:39.863Z,1011.73
2015-10-27T00:58:49.863Z,1011.73
2015-10-27T00:58:59.863Z,1011.74
2015-10-27T00:59:09.878Z,1011.73
2015-10-27T00:59:19.878Z,1011.74
2015-10-27T00:59:29.894Z,1011.74
2015-10-27T00:59:39.897Z,1011.73
2015-10-27T00:59:49.897Z,1011.74
2015-10-27T00:59:59.913Z,1011.72
2015-10-27T01:00:09.913Z,1011.74
2015-10-27T01:00:19.913Z,1011.72
2015-10-27T01:00:29.928Z,1011.71
2015-10-27T01:00:39.931Z,1011.74
2015-10-27T01:00:49.931Z,1011.77
2015-10-27T01:00:59.947Z,1011.74
2015-10-27T01:01:09.947Z,1011.72
2015-10-27T01:01:19.947Z,1011.72
2015-10-27T01:01:29.962Z,1011.75
2015-10-27T01:01:39.963Z,1011.72
2015-10-27T01:01:49.963Z,1011.74
2015-10-27T01:01:59.979Z,1011.73
2015-10-27T01:02:09.979Z,1011.76
2015-10-27T01:02:19.995Z,1011.74
2015-10-27T01:02:29.995Z,1011.73
2015-10-27T01:02:39.998Z,1011.72
2015-10-27T01:02:49.998Z,1011.71
2015-10-27T01:03:00.013Z,1011.75
2015-10-27T01:03:10.013Z,1011.74
2015-10-27T01:03:20.013Z,1011.75
2015-10-27T01:03:30.029Z,1011.72
2015-10-27T01:03:40.032Z,1011.74
2015-10-27T01:03:50.032Z,1011.72
2015-10-27T01:04:00.048Z,1011.73
2015-10-27T01:04:10.048Z,1011.69
2015-10-27T01:04:20.063Z,1011.72
2015-10-27T01:04:30.063Z,1011.7
2015-10-27T01:04:40.066Z,1011.69
2015-10-27T01:04:50.066Z,1011.74
2015-10-27T01:05:00.082Z,1011.76
2015-10-27T01:05:10.097Z,1011.73
2015-10-27T01:05:20.097Z,1011.69
2015-10-27T01:05:30.097Z,1011.73
2015-10-27T01:05:40.100Z,1011.73
2015-10-27T01:05:50.116Z,1011.7
2015-10-27T01:06:00.116Z,1011.72
2015-10-27T01:06:10.116Z,1011.68
2015-10-27T01:06:20.132Z,1011.74
2015-10-27T01:06:30.132Z,1011.71
2015-10-27T01:06:40.134Z,1011.72
2015-10-27T01:06:50.134Z,1011.71
2015-10-27T01:07:00.149Z,1011.7
2015-10-27T01:07:10.149Z,1011.73
2015-10-27T01:07:20.165Z,1011.74
2015-10-27T01:07:30.165Z,1011.73
2015-10-27T01:07:40.012Z,1011.73
2015-10-27T01:07:50.184Z,1011.72
2015-10-27T01:08:00.184Z,1011.75
2015-10-27T01:08:10.184Z,1011.75
2015-10-27T01:08:20.184Z,1011.75
2015-10-27T01:08:30.199Z,1011.75
2015-10-27T01:08:40.202Z,1011.72
2015-10-27T01:08:50.218Z,1011.75
2015-10-27T01:09:00.218Z,1011.71
2015-10-27T01:09:10.233Z,1011.73
2015-10-27T01:09:20.233Z,1011.71
2015-10-27T01:09:30.233Z,1011.73
2015-10-27T01:09:40.236Z,1011.75
2015-10-27T01:09:50.252Z,1011.71
2015-10-27T01:10:00.252Z,1011.73
2015-10-27T01:10:10.252Z,1011.73
2015-10-27T01:10:20.252Z,1011.71
2015-10-27T01:10:30.268Z,1011.72
2015-10-27T01:10:40.270Z,1011.7
2015-10-27T01:10:50.270Z,1011.74
2015-10-27T01:11:00.285Z,1011.73
2015-10-27T01:11:10.285Z,1011.74
2015-10-27T01:11:20.285Z,1011.71
2015-10-27T01:11:30.301Z,1011.75
2015-10-27T01:11:40.304Z,1011.75
2015-10-27T01:11:50.320Z,1011.7
2015-10-27T01:12:00.320Z,1011.73
2015-10-27T01:12:10.320Z,1011.7
2015-10-27T01:12:20.320Z,1011.71
2015-10-27T01:12:30.335Z,1011.7
2015-10-27T01:12:40.337Z,1011.71
2015-10-27T01:12:50.353Z,1011.7
2015-10-27T01:13:00.353Z,1011.73
2015-10-27T01:13:10.353Z,1011.71
2015-10-27T01:13:20.368Z,1011.7
2015-10-27T01:13:30.368Z,1011.7
2015-10-27T01:13:40.371Z,1011.66
2015-10-27T01:13:50.387Z,1011.67
2015-10-27T01:14:00.387Z,1011.66
2015-10-27T01:14:10.387Z,1011.68
2015-10-27T01:14:20.403Z,1011.68
2015-10-27T01:14:30.403Z,1011.67
2015-10-27T01:14:40.405Z,1011.67
2015-10-27T01:14:50.420Z,1011.66
2015-10-27T01:15:00.420Z,1011.66
2015-10-27T01:15:10.420Z,1011.66
2015-10-27T01:15:20.436Z,1011.69
2015-10-27T01:15:30.436Z,1011.66
2015-10-27T01:15:40.439Z,1011.66
2015-10-27T01:15:50.455Z,1011.68
2015-10-27T01:16:00.455Z,1011.66
2015-10-27T01:16:10.470Z,1011.69
2015-10-27T01:16:20.470Z,1011.69
2015-10-27T01:16:30.470Z,1011.67
2015-10-27T01:16:40.473Z,1011.66
2015-10-27T01:16:50.489Z,1011.66
2015-10-27T01:17:00.489Z,1011.67
2015-10-27T01:17:10.504Z,1011.66
2015-10-27T01:17:20.504Z,1011.66
2015-10-27T01:17:30.504Z,1011.64
2015-10-27T01:17:40.507Z,1011.65
2015-10-27T01:17:50.523Z,1011.63
2015-10-27T01:18:00.523Z,1011.65
2015-10-27T01:18:10.539Z,1011.64
2015-10-27T01:18:20.539Z,1011.63
2015-10-27T01:18:30.539Z,1011.66
2015-10-27T01:18:40.541Z,1011.62
2015-10-27T01:18:50.556Z,1011.64
2015-10-27T01:19:00.556Z,1011.67
2015-10-27T01:19:10.572Z,1011.64
2015-10-27T01:19:20.572Z,1011.65
2015-10-27T01:19:30.572Z,1011.65
2015-10-27T01:19:40.591Z,1011.63
2015-10-27T01:19:50.591Z,1011.65
2015-10-27T01:20:00.606Z,1011.65
2015-10-27T01:20:10.606Z,1011.63
2015-10-27T01:20:20.606Z,1011.63
2015-10-27T01:20:30.606Z,1011.61
2015-10-27T01:20:40.625Z,1011.6
2015-10-27T01:20:50.625Z,1011.61
2015-10-27T01:21:00.625Z,1011.61
2015-10-27T01:21:10.640Z,1011.62
2015-10-27T01:21:20.640Z,1011.63
2015-10-27T01:21:30.640Z,1011.6
2015-10-27T01:21:40.643Z,1011.61
2015-10-27T01:21:50.659Z,1011.59
2015-10-27T01:22:00.659Z,1011.59
2015-10-27T01:22:10.659Z,1011.63
2015-10-27T01:22:20.675Z,1011.6
2015-10-27T01:22:30.675Z,1011.56
2015-10-27T01:22:40.692Z,1011.62
2015-10-27T01:22:50.692Z,1011.58
2015-10-27T01:23:06.724Z,1011.61
2015-10-27T01:23:10.708Z,1011.6
2015-10-27T01:23:20.708Z,1011.59
2015-10-27T01:23:30.708Z,1011.59
2015-10-27T01:23:40.711Z,1011.59
2015-10-27T01:23:50.727Z,1011.59
2015-10-27T01:24:00.727Z,1011.58
2015-10-27T01:24:10.742Z,1011.57
2015-10-27T01:24:20.742Z,1011.6
2015-10-27T01:24:30.758Z,1011.55
2015-10-27T01:24:40.761Z,1011.56
2015-10-27T01:24:50.761Z,1011.58
2015-10-27T01:25:00.776Z,1011.58
2015-10-27T01:25:10.776Z,1011.55
2015-10-27T01:25:20.776Z,1011.58
2015-10-27T01:25:30.776Z,1011.56
2015-10-27T01:25:40.795Z,1011.55
2015-10-27T01:25:50.795Z,1011.58
2015-10-27T01:26:00.795Z,1011.55
2015-10-27T01:26:10.811Z,1011.53
2015-10-27T01:26:20.811Z,1011.58
2015-10-27T01:26:30.826Z,1011.58
2015-10-27T01:26:40.828Z,1011.58
2015-10-27T01:26:50.828Z,1011.57
2015-10-27T01:27:00.828Z,1011.59
2015-10-27T01:27:10.844Z,1011.58
2015-10-27T01:27:20.844Z,1011.58
2015-10-27T01:27:30.844Z,1011.55
2015-10-27T01:27:40.863Z,1011.55
2015-10-27T01:27:50.878Z,1011.55
2015-10-27T01:28:00.863Z,1011.56
2015-10-27T01:28:10.878Z,1011.56
2015-10-27T01:28:20.878Z,1011.56
2015-10-27T01:28:30.878Z,1011.52
2015-10-27T01:28:40.896Z,1011.53
2015-10-27T01:28:50.896Z,1011.52
2015-10-27T01:29:00.911Z,1011.53
2015-10-27T01:29:10.911Z,1011.55
2015-10-27T01:29:20.911Z,1011.57
2015-10-27T01:29:30.911Z,1011.55
2015-10-27T01:29:40.930Z,1011.52
2015-10-27T01:29:50.930Z,1011.52
2015-10-27T01:30:00.946Z,1011.53
2015-10-27T01:30:10.946Z,1011.53
2015-10-27T01:30:20.946Z,1011.54
2015-10-27T01:30:30.946Z,1011.54
2015-10-27T01:30:40.963Z,1011.54
2015-10-27T01:30:50.963Z,1011.52
2015-10-27T01:31:00.979Z,1011.53
2015-10-27T01:31:10.995Z,1011.54
2015-10-27T01:31:20.979Z,1011.55
2015-10-27T01:31:31.041Z,1011.51
2015-10-27T01:31:40.998Z,1011.53
2015-10-27T01:31:50.998Z,1011.51
2015-10-27T01:32:01.013Z,1011.52
2015-10-27T01:32:11.013Z,1011.52
2015-10-27T01:32:21.013Z,1011.51
2015-10-27T01:32:31.029Z,1011.5
2015-10-27T01:32:41.032Z,1011.5
2015-10-27T01:32:51.032Z,1011.53
2015-10-27T01:33:01.047Z,1011.54
2015-10-27T01:33:11.047Z,1011.51
2015-10-27T01:33:21.063Z,1011.54
2015-10-27T01:33:31.047Z,1011.51
2015-10-27T01:33:41.066Z,1011.56
2015-10-27T01:33:51.066Z,1011.54
2015-10-27T01:34:01.082Z,1011.56
2015-10-27T01:34:11.082Z,1011.5
2015-10-27T01:34:21.082Z,1011.5
2015-10-27T01:34:31.097Z,1011.55
2015-10-27T01:34:41.099Z,1011.52
2015-10-27T01:34:51.099Z,1011.53
2015-10-27T01:35:01.115Z,1011.54
2015-10-27T01:35:11.115Z,1011.54
2015-10-27T01:35:21.115Z,1011.55
2015-10-27T01:35:31.131Z,1011.56
2015-10-27T01:35:41.134Z,1011.52
2015-10-27T01:35:51.134Z,1011.55
2015-10-27T01:36:01.149Z,1011.51
2015-10-27T01:36:11.149Z,1011.53
2015-10-27T01:36:21.149Z,1011.54
2015-10-27T01:36:31.165Z,1011.54
2015-10-27T01:36:41.168Z,1011.54
2015-10-27T01:36:51.168Z,1011.52
2015-10-27T01:37:01.183Z,1011.52
2015-10-27T01:37:11.183Z,1011.53
2015-10-27T01:37:21.199Z,1011.54
2015-10-27T01:37:31.199Z,1011.53
2015-10-27T01:37:41.202Z,1011.54
2015-10-27T01:37:51.218Z,1011.54
2015-10-27T01:38:01.218Z,1011.55
2015-10-27T01:38:11.218Z,1011.53
2015-10-27T01:38:21.218Z,1011.5
2015-10-27T01:38:31.233Z,1011.49
2015-10-27T01:38:41.235Z,1011.51
2015-10-27T01:38:51.235Z,1011.54
2015-10-27T01:39:01.251Z,1011.49
2015-10-27T01:39:11.251Z,1011.51
2015-10-27T01:39:21.267Z,1011.52
2015-10-27T01:39:31.267Z,1011.51
2015-10-27T01:39:41.285Z,1011.5
2015-10-27T01:39:51.285Z,1011.53
2015-10-27T01:40:01.285Z,1011.51
2015-10-27T01:40:11.285Z,1011.53
2015-10-27T01:40:21.301Z,1011.52
2015-10-27T01:40:31.301Z,1011.52
2015-10-27T01:40:41.303Z,1011.5
2015-10-27T01:40:51.303Z,1011.53
2015-10-27T01:41:01.318Z,1011.52
2015-10-27T01:41:11.318Z,1011.5
2015-10-27T01:41:21.334Z,1011.51
2015-10-27T01:41:31.334Z,1011.49
2015-10-27T01:41:41.196Z,1011.47
2015-10-27T01:41:51.368Z,1011.51
2015-10-27T01:42:01.353Z,1011.5
2015-10-27T01:42:11.353Z,1011.49
2015-10-27T01:42:21.353Z,1011.49
2015-10-27T01:42:31.368Z,1011.49
2015-10-27T01:42:41.371Z,1011.49
2015-10-27T01:42:51.371Z,1011.46
2015-10-27T01:43:01.387Z,1011.49
2015-10-27T01:43:11.387Z,1011.48
2015-10-27T01:43:21.403Z,1011.48
2015-10-27T01:43:31.403Z,1011.46
2015-10-27T01:43:41.406Z,1011.49
2015-10-27T01:43:51.421Z,1011.52
2015-10-27T01:44:01.421Z,1011.49
2015-10-27T01:44:11.421Z,1011.5
2015-10-27T01:44:21.421Z,1011.5
2015-10-27T01:44:31.437Z,1011.5
2015-10-27T01:44:41.439Z,1011.48
2015-10-27T01:44:51.454Z,1011.51
2015-10-27T01:45:01.454Z,1011.47
2015-10-27T01:45:11.470Z,1011.53
2015-10-27T01:45:21.470Z,1011.47
2015-10-27T01:45:31.470Z,1011.5
2015-10-27T01:45:41.473Z,1011.48
2015-10-27T01:45:51.489Z,1011.49
2015-10-27T01:46:01.489Z,1011.48
2015-10-27T01:46:11.489Z,1011.45
2015-10-27T01:46:21.504Z,1011.48
2015-10-27T01:46:31.504Z,1011.46
2015-10-27T01:46:41.507Z,1011.48
2015-10-27T01:46:51.523Z,1011.47
2015-10-27T01:47:01.523Z,1011.49
2015-10-27T01:47:11.523Z,1011.49
2015-10-27T01:47:21.539Z,1011.49
2015-10-27T01:47:31.539Z,1011.5
2015-10-27T01:47:41.557Z,1011.47
2015-10-27T01:47:51.557Z,1011.45
2015-10-27T01:48:01.588Z,1011.45
2015-10-27T01:48:11.557Z,1011.46
2015-10-27T01:48:21.573Z,1011.49
2015-10-27T01:48:31.573Z,1011.48
2015-10-27T01:48:41.575Z,1011.46
2015-10-27T01:48:51.590Z,1011.45
2015-10-27T01:49:01.590Z,1011.46
2015-10-27T01:49:11.590Z,1011.47
2015-10-27T01:49:21.606Z,1011.48
2015-10-27T01:49:31.606Z,1011.46
2015-10-27T01:49:41.625Z,1011.42
2015-10-27T01:49:51.625Z,1011.46
2015-10-27T01:50:01.640Z,1011.45
2015-10-27T01:50:11.625Z,1011.45
2015-10-27T01:50:21.640Z,1011.45
2015-10-27T01:50:31.640Z,1011.44
2015-10-27T01:50:41.659Z,1011.44
2015-10-27T01:50:51.659Z,1011.44
2015-10-27T01:51:01.659Z,1011.43
2015-10-27T01:51:11.675Z,1011.44
2015-10-27T01:51:21.675Z,1011.43
2015-10-27T01:51:31.690Z,1011.44
2015-10-27T01:51:41.693Z,1011.42
2015-10-27T01:51:51.693Z,1011.42
2015-10-27T01:52:01.709Z,1011.4
2015-10-27T01:52:11.709Z,1011.41
2015-10-27T01:52:21.709Z,1011.42
2015-10-27T01:52:31.709Z,1011.42
2015-10-27T01:52:41.711Z,1011.41
2015-10-27T01:52:51.726Z,1011.4
2015-10-27T01:53:01.726Z,1011.4
2015-10-27T01:53:11.742Z,1011.39
2015-10-27T01:53:21.742Z,1011.4
2015-10-27T01:53:31.742Z,1011.43
2015-10-27T01:53:41.761Z,1011.41
2015-10-27T01:53:51.761Z,1011.41
2015-10-27T01:54:01.761Z,1011.41
2015-10-27T01:54:11.776Z,1011.43
2015-10-27T01:54:21.776Z,1011.43
2015-10-27T01:54:31.776Z,1011.43
2015-10-27T01:54:41.795Z,1011.45
2015-10-27T01:54:51.795Z,1011.44
2015-10-27T01:55:01.795Z,1011.43
2015-10-27T01:55:11.811Z,1011.44
2015-10-27T01:55:21.811Z,1011.42
2015-10-27T01:55:31.811Z,1011.43
2015-10-27T01:55:41.828Z,1011.43
2015-10-27T01:55:51.828Z,1011.43
2015-10-27T01:56:01.844Z,1011.44
2015-10-27T01:56:11.828Z,1011.45
2015-10-27T01:56:21.844Z,1011.42
2015-10-27T01:56:31.844Z,1011.44
2015-10-27T01:56:41.861Z,1011.43
2015-10-27T01:56:51.861Z,1011.42
2015-10-27T01:57:01.924Z,1011.43
2015-10-27T01:57:11.877Z,1011.42
2015-10-27T01:57:21.877Z,1011.4
2015-10-27T01:57:31.893Z,1011.43
2015-10-27T01:57:41.896Z,1011.42
2015-10-27T01:57:51.896Z,1011.39
2015-10-27T01:58:01.896Z,1011.44
2015-10-27T01:58:11.911Z,1011.43
2015-10-27T01:58:21.911Z,1011.41
2015-10-27T01:58:31.943Z,1011.4
2015-10-27T01:58:41.930Z,1011.4
2015-10-27T01:58:51.930Z,1011.41
2015-10-27T01:59:01.961Z,1011.41
2015-10-27T01:59:11.946Z,1011.38
2015-10-27T01:59:21.946Z,1011.39
2015-10-27T01:59:31.961Z,1011.4
2015-10-27T01:59:41.964Z,1011.38
2015-10-27T01:59:51.964Z,1011.4
2015-10-27T02:00:01.995Z,1011.37
2015-10-27T02:00:11.980Z,1011.38
2015-10-27T02:00:21.824Z,1011.35
2015-10-27T02:00:31.980Z,1011.37
2015-10-27T02:00:41.997Z,1011.36
2015-10-27T02:00:51.997Z,1011.35
2015-10-27T02:01:02.013Z,1011.36
2015-10-27T02:01:12.013Z,1011.38
2015-10-27T02:01:22.013Z,1011.37
2015-10-27T02:01:32.029Z,1011.33